sensor_id;sensor_type;location;lat;lon;timestamp;P1;durP1;ratioP1;P2;durP2;ratioP2
24713;SDS011;12820;51.580;5.010;2023-10-09T00:03:40;30.38;;;15.35;;
24713;SDS011;12820;51.580;5.010;2023-10-09T00:08:44;34.53;;;15.40;;
24713;SDS011;12820;51.580;5.010;2023-10-09T00:13:47;28.13;;;15.45;;
24713;SDS011;12820;51.580;5.010;2023-10-09T00:19:00;28.10;;;15.65;;
24713;SDS011;12820;51.580;5.010;2023-10-09T00:24:16;18.40;;;11.10;;
24713;SDS011;12820;51.580;5.010;2023-10-09T00:34:39;27.23;;;14.70;;
24713;SDS011;12820;51.580;5.010;2023-10-09T00:39:45;26.08;;;13.50;;
24713;SDS011;12820;51.580;5.010;2023-10-09T00:44:50;29.65;;;13.95;;
24713;SDS011;12820;51.580;5.010;2023-10-09T00:49:54;28.27;;;13.73;;
24713;SDS011;12820;51.580;5.010;2023-10-09T00:55:03;25.53;;;13.87;;
24713;SDS011;12820;51.580;5.010;2023-10-09T01:00:11;25.80;;;11.07;;
24713;SDS011;12820;51.580;5.010;2023-10-09T01:05:34;26.75;;;12.30;;
24713;SDS011;12820;51.580;5.010;2023-10-09T01:10:45;24.63;;;12.30;;
24713;SDS011;12820;51.580;5.010;2023-10-09T01:15:54;23.38;;;10.93;;
24713;SDS011;12820;51.580;5.010;2023-10-09T01:21:00;22.40;;;12.02;;
24713;SDS011;12820;51.580;5.010;2023-10-09T01:26:04;25.35;;;13.40;;
24713;SDS011;12820;51.580;5.010;2023-10-09T01:31:06;23.83;;;11.95;;
24713;SDS011;12820;51.580;5.010;2023-10-09T01:36:10;24.88;;;13.57;;
24713;SDS011;12820;51.580;5.010;2023-10-09T01:41:17;25.85;;;13.00;;
24713;SDS011;12820;51.580;5.010;2023-10-09T01:46:22;24.83;;;12.25;;
24713;SDS011;12820;51.580;5.010;2023-10-09T01:51:25;29.50;;;12.40;;
24713;SDS011;12820;51.580;5.010;2023-10-09T01:56:29;25.00;;;13.05;;
24713;SDS011;12820;51.580;5.010;2023-10-09T02:01:31;21.42;;;12.13;;
24713;SDS011;12820;51.580;5.010;2023-10-09T02:06:36;25.65;;;13.15;;
24713;SDS011;12820;51.580;5.010;2023-10-09T02:11:40;20.60;;;12.90;;
24713;SDS011;12820;51.580;5.010;2023-10-09T02:16:43;23.17;;;12.80;;
24713;SDS011;12820;51.580;5.010;2023-10-09T02:21:45;21.25;;;12.10;;
24713;SDS011;12820;51.580;5.010;2023-10-09T02:26:49;24.08;;;11.55;;
24713;SDS011;12820;51.580;5.010;2023-10-09T02:31:54;20.95;;;12.05;;
24713;SDS011;12820;51.580;5.010;2023-10-09T02:37:03;21.08;;;12.10;;
24713;SDS011;12820;51.580;5.010;2023-10-09T02:47:19;20.52;;;11.75;;
24713;SDS011;12820;51.580;5.010;2023-10-09T02:52:41;16.55;;;10.38;;
24713;SDS011;12820;51.580;5.010;2023-10-09T02:57:44;24.17;;;12.32;;
24713;SDS011;12820;51.580;5.010;2023-10-09T03:02:47;21.75;;;12.88;;
24713;SDS011;12820;51.580;5.010;2023-10-09T03:07:52;24.45;;;13.52;;
24713;SDS011;12820;51.580;5.010;2023-10-09T03:12:56;21.85;;;12.93;;
24713;SDS011;12820;51.580;5.010;2023-10-09T03:18:02;23.00;;;13.52;;
24713;SDS011;12820;51.580;5.010;2023-10-09T03:23:06;24.88;;;13.48;;
24713;SDS011;12820;51.580;5.010;2023-10-09T03:28:11;23.85;;;13.50;;
24713;SDS011;12820;51.580;5.010;2023-10-09T03:33:17;23.63;;;14.35;;
24713;SDS011;12820;51.580;5.010;2023-10-09T03:38:19;23.70;;;13.35;;
24713;SDS011;12820;51.580;5.010;2023-10-09T03:43:21;20.10;;;12.15;;
24713;SDS011;12820;51.580;5.010;2023-10-09T03:48:25;21.45;;;12.50;;
24713;SDS011;12820;51.580;5.010;2023-10-09T03:53:31;21.90;;;13.10;;
24713;SDS011;12820;51.580;5.010;2023-10-09T03:58:33;23.95;;;13.18;;
24713;SDS011;12820;51.580;5.010;2023-10-09T04:03:39;24.75;;;13.80;;
24713;SDS011;12820;51.580;5.010;2023-10-09T04:08:41;26.45;;;14.75;;
24713;SDS011;12820;51.580;5.010;2023-10-09T04:13:49;25.55;;;15.07;;
24713;SDS011;12820;51.580;5.010;2023-10-09T04:18:51;27.63;;;14.27;;
24713;SDS011;12820;51.580;5.010;2023-10-09T04:24:03;26.27;;;13.38;;
24713;SDS011;12820;51.580;5.010;2023-10-09T04:29:18;30.55;;;15.10;;
24713;SDS011;12820;51.580;5.010;2023-10-09T04:34:29;32.92;;;14.68;;
24713;SDS011;12820;51.580;5.010;2023-10-09T04:39:40;21.58;;;12.73;;
24713;SDS011;12820;51.580;5.010;2023-10-09T04:44:49;26.70;;;15.70;;
24713;SDS011;12820;51.580;5.010;2023-10-09T04:50:10;26.25;;;15.45;;
24713;SDS011;12820;51.580;5.010;2023-10-09T04:55:33;26.83;;;15.05;;
24713;SDS011;12820;51.580;5.010;2023-10-09T05:00:40;25.00;;;12.77;;
24713;SDS011;12820;51.580;5.010;2023-10-09T05:05:42;28.90;;;15.35;;
24713;SDS011;12820;51.580;5.010;2023-10-09T05:10:49;31.40;;;15.05;;
24713;SDS011;12820;51.580;5.010;2023-10-09T05:16:20;26.92;;;14.60;;
24713;SDS011;12820;51.580;5.010;2023-10-09T05:21:33;27.83;;;15.10;;
24713;SDS011;12820;51.580;5.010;2023-10-09T05:26:37;19.08;;;10.38;;
24713;SDS011;12820;51.580;5.010;2023-10-09T05:31:50;28.13;;;15.85;;
24713;SDS011;12820;51.580;5.010;2023-10-09T05:37:05;36.50;;;16.15;;
24713;SDS011;12820;51.580;5.010;2023-10-09T05:42:27;27.38;;;16.05;;
24713;SDS011;12820;51.580;5.010;2023-10-09T05:47:51;31.40;;;13.98;;
24713;SDS011;12820;51.580;5.010;2023-10-09T05:53:06;25.27;;;11.45;;
24713;SDS011;12820;51.580;5.010;2023-10-09T05:58:19;24.10;;;13.57;;
24713;SDS011;12820;51.580;5.010;2023-10-09T06:03:40;27.70;;;14.07;;
24713;SDS011;12820;51.580;5.010;2023-10-09T06:08:56;39.78;;;17.52;;
24713;SDS011;12820;51.580;5.010;2023-10-09T06:19:40;33.72;;;17.92;;
24713;SDS011;12820;51.580;5.010;2023-10-09T06:24:45;37.03;;;18.45;;
24713;SDS011;12820;51.580;5.010;2023-10-09T06:29:57;31.83;;;17.00;;
24713;SDS011;12820;51.580;5.010;2023-10-09T06:35:19;31.80;;;16.65;;
24713;SDS011;12820;51.580;5.010;2023-10-09T06:40:24;31.17;;;16.30;;
24713;SDS011;12820;51.580;5.010;2023-10-09T06:45:38;36.70;;;18.98;;
24713;SDS011;12820;51.580;5.010;2023-10-09T06:50:47;34.78;;;18.02;;
24713;SDS011;12820;51.580;5.010;2023-10-09T06:56:00;35.08;;;17.73;;
24713;SDS011;12820;51.580;5.010;2023-10-09T07:01:08;38.03;;;18.45;;
24713;SDS011;12820;51.580;5.010;2023-10-09T07:06:31;36.10;;;18.67;;
24713;SDS011;12820;51.580;5.010;2023-10-09T07:16:42;33.67;;;17.35;;
24713;SDS011;12820;51.580;5.010;2023-10-09T07:22:02;33.00;;;17.23;;
24713;SDS011;12820;51.580;5.010;2023-10-09T07:27:05;36.47;;;17.63;;
24713;SDS011;12820;51.580;5.010;2023-10-09T07:37:25;34.30;;;16.25;;
24713;SDS011;12820;51.580;5.010;2023-10-09T07:42:39;25.95;;;13.90;;
24713;SDS011;12820;51.580;5.010;2023-10-09T07:47:42;33.40;;;17.48;;
24713;SDS011;12820;51.580;5.010;2023-10-09T07:53:02;31.57;;;16.00;;
24713;SDS011;12820;51.580;5.010;2023-10-09T07:58:17;33.40;;;16.88;;
24713;SDS011;12820;51.580;5.010;2023-10-09T08:03:26;34.05;;;18.25;;
24713;SDS011;12820;51.580;5.010;2023-10-09T08:08:35;31.67;;;17.77;;
24713;SDS011;12820;51.580;5.010;2023-10-09T08:13:40;36.45;;;19.45;;
24713;SDS011;12820;51.580;5.010;2023-10-09T08:18:58;35.22;;;18.25;;
24713;SDS011;12820;51.580;5.010;2023-10-09T08:24:00;36.97;;;18.85;;
24713;SDS011;12820;51.580;5.010;2023-10-09T08:29:06;33.53;;;17.38;;
24713;SDS011;12820;51.580;5.010;2023-10-09T08:34:19;31.73;;;17.92;;
24713;SDS011;12820;51.580;5.010;2023-10-09T08:39:30;28.60;;;16.15;;
24713;SDS011;12820;51.580;5.010;2023-10-09T08:44:37;32.58;;;17.95;;
24713;SDS011;12820;51.580;5.010;2023-10-09T08:49:41;31.95;;;17.75;;
24713;SDS011;12820;51.580;5.010;2023-10-09T08:54:44;33.55;;;18.95;;
24713;SDS011;12820;51.580;5.010;2023-10-09T08:59:46;29.00;;;15.98;;
24713;SDS011;12820;51.580;5.010;2023-10-09T09:04:49;25.60;;;14.30;;
24713;SDS011;12820;51.580;5.010;2023-10-09T09:09:56;29.13;;;15.32;;
24713;SDS011;12820;51.580;5.010;2023-10-09T09:15:00;29.95;;;15.40;;
24713;SDS011;12820;51.580;5.010;2023-10-09T09:20:18;32.42;;;17.27;;
24713;SDS011;12820;51.580;5.010;2023-10-09T09:25:27;20.50;;;11.63;;
24713;SDS011;12820;51.580;5.010;2023-10-09T09:30:46;29.05;;;14.93;;
24713;SDS011;12820;51.580;5.010;2023-10-09T09:35:56;24.92;;;11.95;;
24713;SDS011;12820;51.580;5.010;2023-10-09T09:41:04;34.88;;;17.17;;
24713;SDS011;12820;51.580;5.010;2023-10-09T09:46:09;29.63;;;13.55;;
24713;SDS011;12820;51.580;5.010;2023-10-09T09:51:13;20.38;;;10.98;;
24713;SDS011;12820;51.580;5.010;2023-10-09T09:56:16;23.88;;;13.75;;
24713;SDS011;12820;51.580;5.010;2023-10-09T10:01:25;26.88;;;14.32;;
24713;SDS011;12820;51.580;5.010;2023-10-09T10:06:31;30.13;;;13.57;;
24713;SDS011;12820;51.580;5.010;2023-10-09T10:11:44;25.58;;;13.50;;
24713;SDS011;12820;51.580;5.010;2023-10-09T10:22:23;27.95;;;13.35;;
24713;SDS011;12820;51.580;5.010;2023-10-09T10:27:26;26.27;;;13.70;;
24713;SDS011;12820;51.580;5.010;2023-10-09T10:32:52;23.90;;;13.13;;
24713;SDS011;12820;51.580;5.010;2023-10-09T10:37:54;24.98;;;13.18;;
24713;SDS011;12820;51.580;5.010;2023-10-09T10:43:17;21.67;;;12.52;;
24713;SDS011;12820;51.580;5.010;2023-10-09T10:48:38;20.33;;;10.38;;
24713;SDS011;12820;51.580;5.010;2023-10-09T10:53:50;24.80;;;10.40;;
24713;SDS011;12820;51.580;5.010;2023-10-09T10:59:00;18.17;;;9.20;;
24713;SDS011;12820;51.580;5.010;2023-10-09T11:04:10;18.08;;;8.38;;
24713;SDS011;12820;51.580;5.010;2023-10-09T11:09:15;17.70;;;8.68;;
24713;SDS011;12820;51.580;5.010;2023-10-09T11:14:55;22.13;;;8.48;;
24713;SDS011;12820;51.580;5.010;2023-10-09T11:20:10;20.73;;;8.82;;
24713;SDS011;12820;51.580;5.010;2023-10-09T11:25:34;18.95;;;7.53;;
24713;SDS011;12820;51.580;5.010;2023-10-09T11:30:37;16.52;;;7.18;;
24713;SDS011;12820;51.580;5.010;2023-10-09T11:35:40;17.17;;;7.40;;
24713;SDS011;12820;51.580;5.010;2023-10-09T11:40:45;13.43;;;5.95;;
24713;SDS011;12820;51.580;5.010;2023-10-09T11:45:53;19.85;;;6.72;;
24713;SDS011;12820;51.580;5.010;2023-10-09T11:50:59;13.68;;;5.90;;
24713;SDS011;12820;51.580;5.010;2023-10-09T11:56:04;12.98;;;5.50;;
24713;SDS011;12820;51.580;5.010;2023-10-09T12:01:12;11.10;;;5.45;;
24713;SDS011;12820;51.580;5.010;2023-10-09T12:06:20;14.90;;;5.70;;
24713;SDS011;12820;51.580;5.010;2023-10-09T12:11:29;13.25;;;5.13;;
24713;SDS011;12820;51.580;5.010;2023-10-09T12:16:31;15.50;;;5.68;;
24713;SDS011;12820;51.580;5.010;2023-10-09T12:21:35;14.40;;;5.78;;
24713;SDS011;12820;51.580;5.010;2023-10-09T12:26:38;14.00;;;5.35;;
24713;SDS011;12820;51.580;5.010;2023-10-09T12:31:45;12.02;;;5.35;;
24713;SDS011;12820;51.580;5.010;2023-10-09T12:36:47;11.88;;;5.53;;
24713;SDS011;12820;51.580;5.010;2023-10-09T12:41:51;11.95;;;5.38;;
24713;SDS011;12820;51.580;5.010;2023-10-09T12:46:56;15.55;;;5.40;;
24713;SDS011;12820;51.580;5.010;2023-10-09T12:51:59;10.82;;;5.30;;
24713;SDS011;12820;51.580;5.010;2023-10-09T12:57:02;15.80;;;5.13;;
24713;SDS011;12820;51.580;5.010;2023-10-09T13:02:04;11.10;;;4.95;;
24713;SDS011;12820;51.580;5.010;2023-10-09T13:07:08;11.93;;;5.18;;
24713;SDS011;12820;51.580;5.010;2023-10-09T13:12:10;12.85;;;4.97;;
24713;SDS011;12820;51.580;5.010;2023-10-09T13:17:20;11.85;;;4.70;;
24713;SDS011;12820;51.580;5.010;2023-10-09T13:22:24;13.90;;;5.57;;
24713;SDS011;12820;51.580;5.010;2023-10-09T13:27:27;12.02;;;5.18;;
24713;SDS011;12820;51.580;5.010;2023-10-09T13:32:35;11.50;;;4.95;;
24713;SDS011;12820;51.580;5.010;2023-10-09T13:37:38;11.95;;;4.45;;
24713;SDS011;12820;51.580;5.010;2023-10-09T13:42:40;12.73;;;4.18;;
24713;SDS011;12820;51.580;5.010;2023-10-09T13:47:43;9.70;;;3.47;;
24713;SDS011;12820;51.580;5.010;2023-10-09T13:52:46;10.57;;;4.15;;
24713;SDS011;12820;51.580;5.010;2023-10-09T13:57:49;9.07;;;3.92;;
24713;SDS011;12820;51.580;5.010;2023-10-09T14:02:51;8.35;;;3.83;;
24713;SDS011;12820;51.580;5.010;2023-10-09T14:07:53;12.60;;;4.20;;
24713;SDS011;12820;51.580;5.010;2023-10-09T14:12:56;11.30;;;4.20;;
24713;SDS011;12820;51.580;5.010;2023-10-09T14:17:58;10.82;;;4.32;;
24713;SDS011;12820;51.580;5.010;2023-10-09T14:23:04;13.20;;;4.22;;
24713;SDS011;12820;51.580;5.010;2023-10-09T14:28:11;11.55;;;4.40;;
24713;SDS011;12820;51.580;5.010;2023-10-09T14:33:13;7.60;;;3.53;;
24713;SDS011;12820;51.580;5.010;2023-10-09T14:38:15;9.85;;;4.30;;
24713;SDS011;12820;51.580;5.010;2023-10-09T14:43:21;11.98;;;4.45;;
24713;SDS011;12820;51.580;5.010;2023-10-09T14:48:24;12.82;;;4.40;;
24713;SDS011;12820;51.580;5.010;2023-10-09T14:53:30;12.45;;;4.72;;
24713;SDS011;12820;51.580;5.010;2023-10-09T14:58:33;11.15;;;4.10;;
24713;SDS011;12820;51.580;5.010;2023-10-09T15:03:37;10.55;;;3.88;;
24713;SDS011;12820;51.580;5.010;2023-10-09T15:08:39;11.73;;;4.18;;
24713;SDS011;12820;51.580;5.010;2023-10-09T15:13:42;15.20;;;4.90;;
24713;SDS011;12820;51.580;5.010;2023-10-09T15:18:44;11.93;;;4.40;;
24713;SDS011;12820;51.580;5.010;2023-10-09T15:23:46;13.02;;;4.50;;
24713;SDS011;12820;51.580;5.010;2023-10-09T15:28:48;12.48;;;4.40;;
24713;SDS011;12820;51.580;5.010;2023-10-09T15:33:52;9.23;;;3.90;;
24713;SDS011;12820;51.580;5.010;2023-10-09T15:38:55;13.23;;;4.90;;
24713;SDS011;12820;51.580;5.010;2023-10-09T15:44:01;10.38;;;4.70;;
24713;SDS011;12820;51.580;5.010;2023-10-09T15:49:03;13.80;;;4.93;;
24713;SDS011;12820;51.580;5.010;2023-10-09T15:54:06;12.75;;;4.47;;
24713;SDS011;12820;51.580;5.010;2023-10-09T15:59:11;14.45;;;5.43;;
24713;SDS011;12820;51.580;5.010;2023-10-09T16:04:14;18.45;;;5.13;;
24713;SDS011;12820;51.580;5.010;2023-10-09T16:09:17;11.32;;;4.93;;
24713;SDS011;12820;51.580;5.010;2023-10-09T16:14:23;16.85;;;4.75;;
24713;SDS011;12820;51.580;5.010;2023-10-09T16:19:25;15.38;;;5.72;;
24713;SDS011;12820;51.580;5.010;2023-10-09T16:24:30;14.02;;;5.35;;
24713;SDS011;12820;51.580;5.010;2023-10-09T16:29:40;10.43;;;4.60;;
24713;SDS011;12820;51.580;5.010;2023-10-09T16:34:49;11.93;;;5.88;;
24713;SDS011;12820;51.580;5.010;2023-10-09T16:39:52;13.18;;;5.85;;
24713;SDS011;12820;51.580;5.010;2023-10-09T16:44:55;16.02;;;6.45;;
24713;SDS011;12820;51.580;5.010;2023-10-09T16:49:58;13.40;;;6.70;;
24713;SDS011;12820;51.580;5.010;2023-10-09T16:55:02;17.45;;;5.93;;
24713;SDS011;12820;51.580;5.010;2023-10-09T17:00:11;13.20;;;5.47;;
24713;SDS011;12820;51.580;5.010;2023-10-09T17:05:37;17.63;;;6.18;;
24713;SDS011;12820;51.580;5.010;2023-10-09T17:10:57;16.15;;;6.28;;
24713;SDS011;12820;51.580;5.010;2023-10-09T17:15:59;11.95;;;5.95;;
24713;SDS011;12820;51.580;5.010;2023-10-09T17:21:06;19.65;;;6.53;;
24713;SDS011;12820;51.580;5.010;2023-10-09T17:26:09;14.10;;;6.03;;
24713;SDS011;12820;51.580;5.010;2023-10-09T17:31:12;15.65;;;6.60;;
24713;SDS011;12820;51.580;5.010;2023-10-09T17:36:15;15.82;;;6.75;;
24713;SDS011;12820;51.580;5.010;2023-10-09T17:41:21;15.60;;;6.38;;
24713;SDS011;12820;51.580;5.010;2023-10-09T17:46:24;15.68;;;6.78;;
24713;SDS011;12820;51.580;5.010;2023-10-09T17:51:26;14.25;;;6.43;;
24713;SDS011;12820;51.580;5.010;2023-10-09T17:56:28;17.55;;;6.80;;
24713;SDS011;12820;51.580;5.010;2023-10-09T18:01:31;18.17;;;7.30;;
24713;SDS011;12820;51.580;5.010;2023-10-09T18:06:35;19.10;;;7.45;;
24713;SDS011;12820;51.580;5.010;2023-10-09T18:11:38;13.02;;;6.82;;
24713;SDS011;12820;51.580;5.010;2023-10-09T18:16:41;22.52;;;8.13;;
24713;SDS011;12820;51.580;5.010;2023-10-09T18:21:44;15.43;;;7.20;;
24713;SDS011;12820;51.580;5.010;2023-10-09T18:26:47;14.07;;;7.20;;
24713;SDS011;12820;51.580;5.010;2023-10-09T18:31:50;17.73;;;6.82;;
24713;SDS011;12820;51.580;5.010;2023-10-09T18:36:52;17.08;;;7.22;;
24713;SDS011;12820;51.580;5.010;2023-10-09T18:41:54;16.75;;;6.95;;
24713;SDS011;12820;51.580;5.010;2023-10-09T18:46:58;16.23;;;7.30;;
24713;SDS011;12820;51.580;5.010;2023-10-09T18:52:01;18.30;;;7.40;;
24713;SDS011;12820;51.580;5.010;2023-10-09T18:57:03;14.05;;;7.32;;
24713;SDS011;12820;51.580;5.010;2023-10-09T19:02:06;16.08;;;8.30;;
24713;SDS011;12820;51.580;5.010;2023-10-09T19:07:13;15.48;;;7.70;;
24713;SDS011;12820;51.580;5.010;2023-10-09T19:12:15;20.80;;;7.88;;
24713;SDS011;12820;51.580;5.010;2023-10-09T19:17:17;17.13;;;8.00;;
24713;SDS011;12820;51.580;5.010;2023-10-09T19:22:21;20.17;;;8.70;;
24713;SDS011;12820;51.580;5.010;2023-10-09T19:27:23;21.02;;;11.05;;
24713;SDS011;12820;51.580;5.010;2023-10-09T19:32:27;22.35;;;11.82;;
24713;SDS011;12820;51.580;5.010;2023-10-09T19:37:30;27.15;;;11.60;;
24713;SDS011;12820;51.580;5.010;2023-10-09T19:42:32;21.17;;;10.73;;
24713;SDS011;12820;51.580;5.010;2023-10-09T19:47:36;19.00;;;9.70;;
24713;SDS011;12820;51.580;5.010;2023-10-09T19:52:50;19.73;;;9.52;;
24713;SDS011;12820;51.580;5.010;2023-10-09T19:57:52;20.75;;;9.27;;
24713;SDS011;12820;51.580;5.010;2023-10-09T20:02:56;20.52;;;9.70;;
24713;SDS011;12820;51.580;5.010;2023-10-09T20:07:59;23.48;;;11.07;;
24713;SDS011;12820;51.580;5.010;2023-10-09T20:13:02;18.77;;;9.85;;
24713;SDS011;12820;51.580;5.010;2023-10-09T20:18:05;18.25;;;9.30;;
24713;SDS011;12820;51.580;5.010;2023-10-09T20:23:09;21.48;;;10.25;;
24713;SDS011;12820;51.580;5.010;2023-10-09T20:28:11;21.38;;;9.88;;
24713;SDS011;12820;51.580;5.010;2023-10-09T20:33:14;18.30;;;10.05;;
24713;SDS011;12820;51.580;5.010;2023-10-09T20:38:16;22.45;;;10.27;;
24713;SDS011;12820;51.580;5.010;2023-10-09T20:43:18;19.60;;;10.70;;
24713;SDS011;12820;51.580;5.010;2023-10-09T20:48:20;21.02;;;10.80;;
24713;SDS011;12820;51.580;5.010;2023-10-09T20:53:23;23.27;;;10.85;;
24713;SDS011;12820;51.580;5.010;2023-10-09T20:58:27;23.27;;;10.80;;
24713;SDS011;12820;51.580;5.010;2023-10-09T21:03:29;21.77;;;12.18;;
24713;SDS011;12820;51.580;5.010;2023-10-09T21:08:31;22.33;;;11.65;;
24713;SDS011;12820;51.580;5.010;2023-10-09T21:13:34;22.63;;;11.93;;
24713;SDS011;12820;51.580;5.010;2023-10-09T21:18:39;24.38;;;12.02;;
24713;SDS011;12820;51.580;5.010;2023-10-09T21:23:41;20.70;;;11.98;;
24713;SDS011;12820;51.580;5.010;2023-10-09T21:28:45;22.67;;;12.45;;
24713;SDS011;12820;51.580;5.010;2023-10-09T21:33:51;20.55;;;11.93;;
24713;SDS011;12820;51.580;5.010;2023-10-09T21:38:53;26.58;;;12.82;;
24713;SDS011;12820;51.580;5.010;2023-10-09T21:43:56;23.27;;;12.32;;
24713;SDS011;12820;51.580;5.010;2023-10-09T21:48:58;23.85;;;12.32;;
24713;SDS011;12820;51.580;5.010;2023-10-09T21:54:01;21.00;;;11.20;;
24713;SDS011;12820;51.580;5.010;2023-10-09T21:59:05;19.10;;;10.65;;
24713;SDS011;12820;51.580;5.010;2023-10-09T22:04:07;20.00;;;10.90;;
24713;SDS011;12820;51.580;5.010;2023-10-09T22:09:10;21.88;;;10.60;;
24713;SDS011;12820;51.580;5.010;2023-10-09T22:14:16;20.35;;;11.73;;
24713;SDS011;12820;51.580;5.010;2023-10-09T22:19:22;22.80;;;11.60;;
24713;SDS011;12820;51.580;5.010;2023-10-09T22:24:27;20.45;;;11.95;;
24713;SDS011;12820;51.580;5.010;2023-10-09T22:29:31;19.60;;;11.48;;
24713;SDS011;12820;51.580;5.010;2023-10-09T22:34:33;19.80;;;11.00;;
24713;SDS011;12820;51.580;5.010;2023-10-09T22:39:38;21.40;;;11.48;;
24713;SDS011;12820;51.580;5.010;2023-10-09T22:44:43;21.08;;;11.45;;
24713;SDS011;12820;51.580;5.010;2023-10-09T22:49:46;17.98;;;10.95;;
24713;SDS011;12820;51.580;5.010;2023-10-09T22:54:54;20.73;;;10.27;;
24713;SDS011;12820;51.580;5.010;2023-10-09T22:59:56;20.83;;;10.68;;
24713;SDS011;12820;51.580;5.010;2023-10-09T23:05:02;21.80;;;10.90;;
24713;SDS011;12820;51.580;5.010;2023-10-09T23:10:14;21.45;;;10.68;;
24713;SDS011;12820;51.580;5.010;2023-10-09T23:15:17;19.63;;;10.48;;
24713;SDS011;12820;51.580;5.010;2023-10-09T23:20:35;19.02;;;10.50;;
24713;SDS011;12820;51.580;5.010;2023-10-09T23:25:51;20.90;;;10.73;;
24713;SDS011;12820;51.580;5.010;2023-10-09T23:30:56;23.33;;;11.40;;
24713;SDS011;12820;51.580;5.010;2023-10-09T23:35:59;26.52;;;11.40;;
24713;SDS011;12820;51.580;5.010;2023-10-09T23:41:07;20.20;;;11.43;;
24713;SDS011;12820;51.580;5.010;2023-10-09T23:46:13;22.67;;;13.80;;
24713;SDS011;12820;51.580;5.010;2023-10-09T23:51:19;25.42;;;14.98;;
24713;SDS011;12820;51.580;5.010;2023-10-09T23:56:22;30.58;;;16.52;;
